METAR Data
IDs: Format: Raw Decoded Include TAF

Data at: 0859 UTC 03 Aug 2021

KLPC 030856Z AUTO 01005KT 10SM OVC005 14/13 A3002 RMK AO2 SLP166 T01390128 57010
KLPC 030756Z AUTO 32003KT 10SM OVC005 14/13 A3003 RMK AO2 SLP168 T01440133 402280083
KLPC 030719Z AUTO 28004KT 10SM OVC005 15/13 A3004 RMK AO2
KLPC 030656Z AUTO 28004KT 10SM OVC007 15/13 A3004 RMK AO2 SLP174 T01500133
KLPC 030556Z AUTO 31004KT 10SM OVC007 16/14 A3005 RMK AO2 SLP176 T01560139 10222 20150 50003
KLPC 030456Z AUTO 27005KT 10SM OVC009 16/14 A3006 RMK AO2 SLP178 T01560139
KLPC 030433Z AUTO 27006KT 10SM BKN009 15/13 A3005 RMK AO2
KLPC 030417Z AUTO 27005KT 10SM FEW009 15/13 A3005 RMK AO2
KLPC 030356Z AUTO 27006KT 10SM CLR 15/13 A3005 RMK AO2 SLP178 T01500133
KLPC 030256Z AUTO 27009KT 10SM CLR 17/13 A3004 RMK AO2 SLP173 T01670133 53004
KLPC 030156Z AUTO 26011KT 10SM CLR 19/14 A3003 RMK AO2 SLP170 T01890139
KLPC 030056Z AUTO 26011G17KT 10SM CLR 20/14 A3003 RMK AO2 SLP170 T02000144
KLPC 022356Z AUTO 25011KT 10SM CLR 22/14 A3003 RMK AO2 SLP170 T02220144 10228 20206 58011
KLPC 022256Z AUTO 26013G17KT 10SM CLR 22/14 A3004 RMK AO2 SLP174 T02220144
KLPC 022156Z AUTO 26012KT 10SM CLR 22/14 A3005 RMK AO2 SLP178 T02220144
KLPC 022056Z AUTO 26013G21KT 10SM CLR 22/14 A3006 RMK AO2 SLP181 T02170144 58012
KLPC 021956Z AUTO 25014G19KT 10SM CLR 22/14 A3007 RMK AO2 SLP184 T02170144
KLPC 021856Z AUTO 26013G18KT 10SM CLR 22/14 A3009 RMK AO2 SLP189 T02220144
KLPC 021756Z AUTO 25012G15KT 10SM CLR 21/14 A3009 RMK AO2 SLP191 T02060139 10206 20083 57008
KLPC 021656Z AUTO 26008KT 10SM CLR 19/14 A3010 RMK AO2 SLP192 T01940139
KLPC 021556Z AUTO 24003KT 10SM CLR 17/12 A3012 RMK AO2 SLP199 T01670122
KLPC 021456Z AUTO 11003KT 10SM CLR 13/10 A3012 RMK AO2 SLP200 T01330100 51013
KLPC 021356Z AUTO 09003KT 10SM CLR 09/08 A3011 RMK AO2 SLP196 T00940078
KLPC 021256Z AUTO 00000KT 10SM CLR 09/08 A3009 RMK AO2 SLP191 T00940078
KLPC 021156Z AUTO 09003KT 10SM CLR 09/08 A3008 RMK AO2 SLP187 T00890078 10144 20083 53001
KLPC 021056Z AUTO 00000KT 10SM CLR 09/08 A3008 RMK AO2 SLP186 T00940083
KLPC 020956Z AUTO 08003KT 10SM CLR 11/09 A3007 RMK AO2 SLP185 T01060089
KLPC 020856Z AUTO 00000KT 10SM CLR 11/08 A3008 RMK AO2 SLP186 T01060083 56005
KLPC 020756Z AUTO 00000KT 10SM CLR 12/09 A3008 RMK AO2 SLP185 T01170094 402280117
KLPC 020656Z AUTO 00000KT 10SM CLR 13/11 A3008 RMK AO2 SLP189 T01280106
KLPC 020556Z AUTO 00000KT 10SM CLR 14/12 A3009 RMK AO2 SLP191 T01440122 10222 20139 50008
KLPC 020456Z AUTO 28003KT 10SM CLR 15/12 A3010 RMK AO2 SLP194 T01500122
KLPC 020356Z AUTO 27006KT 10SM CLR 16/12 A3008 RMK AO2 SLP189 T01610122
KLPC 020256Z AUTO 29008KT 10SM CLR 18/13 A3007 RMK AO2 SLP184 T01830128 53002
KLPC 020156Z AUTO 10SM CLR 21/13 A3006 RMK AO2 SLP182 T02060128 $
KLPC 020056Z AUTO 26011KT 10SM CLR 22/13 A3006 RMK AO2 SLP180 T02170133
KLPC 012356Z AUTO 27012KT 10SM CLR 22/13 A3006 RMK AO2 SLP181 T02220133 10228 20206 58007
KLPC 012256Z AUTO 10SM CLR 22/13 A3007 RMK AO2 SLP183 T02220133
KLPC 012156Z AUTO 27014G17KT 10SM CLR 23/13 A3008 RMK AO2 SLP187 T02280133